createdAt,value
2022-08-25T00:02:12.421Z,101053.94
2022-08-25T00:04:39.017Z,101047.69
2022-08-25T00:07:07.026Z,101052.22
2022-08-25T00:09:34.692Z,101045.97
2022-08-25T00:12:02.983Z,101052.28
2022-08-25T00:14:35.963Z,101048.72
2022-08-25T00:17:05.212Z,101052.38
2022-08-25T00:19:35.393Z,101054.19
2022-08-25T00:22:02.752Z,101049.75
2022-08-25T00:24:29.684Z,101048.88
2022-08-25T00:26:58.226Z,101051.59
2022-08-25T00:29:26.370Z,101055.19
2022-08-25T00:31:53.912Z,101054.34
2022-08-25T00:34:23.826Z,101056.19
2022-08-25T00:36:53.375Z,101047.28
2022-08-25T00:39:22.910Z,101048.16
2022-08-25T00:41:51.157Z,101055.34
2022-08-25T00:44:18.856Z,101059.84
2022-08-25T00:46:51.730Z,101055.38
2022-08-25T00:49:29.353Z,101055.41
2022-08-25T00:52:02.928Z,101059.91
2022-08-25T00:54:37.626Z,101051.91
2022-08-25T00:57:05.707Z,101054.59
2022-08-25T00:59:32.809Z,101049.31
2022-08-25T01:01:59.978Z,101058.25
2022-08-25T01:04:27.295Z,101059.16
2022-08-25T01:06:55.728Z,101052.03
2022-08-25T01:09:22.617Z,101055.66
2022-08-25T01:11:49.521Z,101053.91
2022-08-25T01:14:18.206Z,101054.84
2022-08-25T01:16:45.291Z,101053.97
2022-08-25T01:19:15.387Z,101060.25
2022-08-25T01:21:48.261Z,101061.16
2022-08-25T01:24:31.762Z,101054.94
2022-08-25T01:26:58.553Z,101052.25
2022-08-25T01:29:27.689Z,101049.63
2022-08-25T01:32:00.252Z,101049.63
2022-08-25T01:34:29.846Z,101050.56
2022-08-25T01:36:57.797Z,101052.38
2022-08-25T01:39:26.680Z,101042.59
2022-08-25T01:42:02.791Z,101045.28
2022-08-25T01:44:30.820Z,101046.25
2022-08-25T01:46:57.406Z,101048.97
2022-08-25T01:49:23.893Z,101047.19
2022-08-25T01:52:01.326Z,101049.91
2022-08-25T01:54:27.889Z,101050.78
2022-08-25T01:56:54.424Z,101052.59
2022-08-25T01:59:24.121Z,101045.47
2022-08-25T02:01:51.886Z,101053.56
2022-08-25T02:04:26.871Z,101045.56
2022-08-25T02:06:53.409Z,101050.03
2022-08-25T02:09:19.904Z,101053.63
2022-08-25T02:11:47.860Z,101045.59
2022-08-25T02:14:16.888Z,101044.75
2022-08-25T02:16:48.293Z,101048.34
2022-08-25T02:19:15.597Z,101044.78
2022-08-25T02:21:42.412Z,101041.25
2022-08-25T02:24:09.987Z,101042.16
2022-08-25T02:26:36.577Z,101045.78
2022-08-25T02:29:04.604Z,101050.28
2022-08-25T02:31:31.541Z,101039.56
2022-08-25T02:33:58.127Z,101036.94
2022-08-25T02:36:24.826Z,101036.06
2022-08-25T02:38:51.355Z,101041.44
2022-08-25T02:41:21.441Z,101038.78
2022-08-25T02:43:49.409Z,101038.81
2022-08-25T02:46:19.925Z,101027.25
2022-08-25T02:48:47.809Z,101024.59
2022-08-25T02:51:14.804Z,101029.97
2022-08-25T02:53:42.184Z,101025.56
2022-08-25T02:56:10.519Z,101030.06
2022-08-25T02:58:38.704Z,101017.56
2022-08-25T03:01:06.800Z,101025.63
2022-08-25T03:03:38.828Z,101036.38
2022-08-25T03:06:08.668Z,101025.72
2022-08-25T03:08:36.793Z,101024.81
2022-08-25T03:11:05.079Z,101029.31
2022-08-25T03:13:32.611Z,101023.97
2022-08-25T03:16:00.600Z,101027.59
2022-08-25T03:18:27.636Z,101026.72
2022-08-25T03:20:55.106Z,101028.56
2022-08-25T03:23:21.670Z,101021.47
2022-08-25T03:26:07.229Z,101022.38
2022-08-25T03:28:33.978Z,101024.19
2022-08-25T03:31:01.178Z,101022.44
2022-08-25T03:33:30.237Z,101010.84
2022-08-25T03:35:57.457Z,101008.19
2022-08-25T03:38:25.326Z,101013.53
2022-08-25T03:40:52.497Z,101018.91
2022-08-25T03:43:19.625Z,101016.25
2022-08-25T03:45:47.212Z,101006.50
2022-08-25T03:48:15.181Z,101013.66
2022-08-25T03:50:50.468Z,101003.84
2022-08-25T03:53:18.922Z,101005.66
2022-08-25T03:55:45.615Z,101014.59
2022-08-25T03:58:12.394Z,101016.44
2022-08-25T04:00:39.381Z,101017.34
2022-08-25T04:03:06.039Z,101024.50
2022-08-25T04:05:32.742Z,101025.41
2022-08-25T04:08:01.821Z,101025.44
2022-08-25T04:10:29.291Z,101029.91
2022-08-25T04:12:56.212Z,101033.50
2022-08-25T04:15:24.899Z,101034.41
2022-08-25T04:17:55.369Z,101029.94
2022-08-25T04:20:22.049Z,101036.22
2022-08-25T04:22:48.637Z,101037.09
2022-08-25T04:25:15.223Z,101038.88
2022-08-25T04:27:42.103Z,101053.16
2022-08-25T04:30:09.870Z,101046.91
2022-08-25T04:32:37.033Z,101051.38
2022-08-25T04:35:05.280Z,101046.03
2022-08-25T04:37:32.474Z,101045.13
2022-08-25T04:39:59.067Z,101046.03
2022-08-25T04:42:27.165Z,101038.00
2022-08-25T04:44:54.498Z,101039.78
2022-08-25T04:47:21.266Z,101037.09
2022-08-25T04:49:47.858Z,101031.75
2022-08-25T04:52:17.283Z,101031.72
2022-08-25T04:54:43.995Z,101025.47
2022-08-25T04:57:10.972Z,101021.88
2022-08-25T04:59:37.924Z,101020.06
2022-08-25T05:02:06.674Z,101019.19
2022-08-25T05:04:35.514Z,101019.16
2022-08-25T05:07:03.073Z,101023.56
2022-08-25T05:09:32.488Z,101026.22
2022-08-25T05:12:00.993Z,101019.03
2022-08-25T05:14:28.682Z,101019.00
2022-08-25T05:16:56.103Z,101020.72
2022-08-25T05:19:24.102Z,101009.91
2022-08-25T05:21:51.273Z,101017.84
2022-08-25T05:24:18.359Z,101020.47
2022-08-25T05:26:44.850Z,101016.84
2022-08-25T05:29:12.745Z,101024.88
2022-08-25T05:31:43.176Z,101032.91
2022-08-25T05:34:12.161Z,101025.69
2022-08-25T05:36:43.137Z,101031.03
2022-08-25T05:39:10.565Z,101019.38
2022-08-25T05:41:37.812Z,101020.19
2022-08-25T05:44:04.508Z,101021.00
2022-08-25T05:46:32.053Z,101009.31
2022-08-25T05:48:59.170Z,101018.19
2022-08-25T05:51:26.751Z,101009.19
2022-08-25T05:53:54.054Z,101010.00
2022-08-25T05:56:21.603Z,101012.56
2022-08-25T05:58:48.885Z,101010.72
2022-08-25T06:01:43.548Z,101017.75
2022-08-25T06:04:12.397Z,101016.75
2022-08-25T06:06:39.572Z,101011.28
2022-08-25T06:09:08.573Z,101013.81
2022-08-25T06:11:37.300Z,101020.03
2022-08-25T06:14:04.649Z,101016.31
2022-08-25T06:16:31.531Z,101019.81
2022-08-25T06:18:58.688Z,101011.63
2022-08-25T06:21:25.442Z,101015.09
2022-08-25T06:23:52.728Z,101015.91
2022-08-25T06:26:21.151Z,101010.41
2022-08-25T06:28:52.140Z,101010.31
2022-08-25T06:31:20.593Z,101012.00
2022-08-25T06:33:47.316Z,101018.13
2022-08-25T06:36:15.029Z,101012.63
2022-08-25T06:38:41.504Z,101012.53
2022-08-25T06:41:10.569Z,101016.88
2022-08-25T06:43:37.100Z,101005.16
2022-08-25T06:46:14.056Z,101002.34
2022-08-25T06:48:41.101Z,101009.34
2022-08-25T06:51:09.492Z,101009.19
2022-08-25T06:53:40.613Z,101011.69
2022-08-25T06:56:07.276Z,101015.03
2022-08-25T06:58:34.311Z,101021.16
2022-08-25T07:01:14.911Z,101016.50
2022-08-25T07:03:43.731Z,101018.97
2022-08-25T07:06:10.410Z,101017.88
2022-08-25T07:08:37.215Z,101006.00
2022-08-25T07:11:08.150Z,101002.25
2022-08-25T07:13:43.974Z,101007.41
2022-08-25T07:16:15.468Z,100996.50
2022-08-25T07:18:44.214Z,101000.81
2022-08-25T07:21:12.350Z,101000.69
2022-08-25T07:23:40.076Z,100998.72
2022-08-25T07:29:08.320Z,100992.97
2022-08-25T07:31:35.356Z,100997.25
2022-08-25T07:34:20.751Z,100991.72
2022-08-25T07:36:47.581Z,100993.38
2022-08-25T07:39:14.052Z,100985.09
2022-08-25T07:41:42.096Z,100986.69
2022-08-25T07:44:10.590Z,100981.16
2022-08-25T07:46:38.256Z,100981.91
2022-08-25T07:49:13.315Z,100979.91
2022-08-25T07:52:04.560Z,100979.69
2022-08-25T07:54:34.337Z,100985.72
2022-08-25T07:57:01.563Z,100983.78
2022-08-25T07:59:28.264Z,100976.38
2022-08-25T08:01:54.833Z,100980.59
2022-08-25T08:04:22.247Z,100982.19
2022-08-25T08:06:48.707Z,100993.63
2022-08-25T08:09:16.154Z,100993.41
2022-08-25T08:11:53.753Z,100998.38
2022-08-25T08:14:21.314Z,100988.69
2022-08-25T08:16:47.773Z,100991.91
2022-08-25T08:19:16.565Z,100994.41
2022-08-25T08:21:43.810Z,100993.34
2022-08-25T08:24:31.112Z,100987.47
2022-08-25T08:26:58.927Z,100986.78
2022-08-25T08:29:25.893Z,100992.63
2022-08-25T08:31:52.511Z,100991.16
2022-08-25T08:34:18.998Z,100990.84
2022-08-25T08:36:45.566Z,100985.19
2022-08-25T08:39:12.309Z,100990.53
2022-08-25T08:42:17.167Z,100983.88
2022-08-25T08:44:46.586Z,100973.91
2022-08-25T08:47:42.697Z,100973.69
2022-08-25T08:50:47.878Z,100978.91
2022-08-25T08:53:23.537Z,100978.56
2022-08-25T08:55:55.680Z,100974.69
2022-08-25T08:58:42.289Z,100970.88
2022-08-25T09:01:17.611Z,100967.88
2022-08-25T09:03:55.302Z,100962.31
2022-08-25T09:06:31.808Z,100962.97
2022-08-25T09:09:02.041Z,100962.59
2022-08-25T09:11:46.641Z,100968.28
2022-08-25T09:14:35.996Z,100965.41
2022-08-25T09:17:16.911Z,100950.69
2022-08-25T09:20:18.900Z,100953.66
2022-08-25T09:22:59.025Z,100951.94
2022-08-25T09:25:52.765Z,100954.06
2022-08-25T09:28:35.708Z,100950.53
2022-08-25T09:31:29.805Z,100948.50
2022-08-25T09:33:59.950Z,100944.06
2022-08-25T09:36:27.001Z,100949.91
2022-08-25T09:38:53.516Z,100953.44
2022-08-25T09:41:51.555Z,100948.41
2022-08-25T09:44:24.292Z,100947.16
2022-08-25T09:47:01.937Z,100947.78
2022-08-25T09:49:38.847Z,100936.94
2022-08-25T09:52:32.558Z,100944.09
2022-08-25T09:55:27.458Z,100940.75
2022-08-25T09:57:56.842Z,100930.66
2022-08-25T10:00:33.679Z,100929.25
2022-08-25T10:03:22.704Z,100938.03
2022-08-25T10:06:12.806Z,100933.72
2022-08-25T10:08:45.676Z,100928.28
2022-08-25T10:11:15.435Z,100911.41
2022-08-25T10:13:47.432Z,100925.44
2022-08-25T10:16:30.818Z,100922.66
2022-08-25T10:19:10.597Z,100910.94
2022-08-25T10:21:39.575Z,100904.41
2022-08-25T10:24:08.457Z,100906.91
2022-08-25T10:27:03.375Z,100898.66
2022-08-25T10:30:03.003Z,100888.59
2022-08-25T10:33:08.154Z,100889.09
2022-08-25T10:36:10.360Z,100893.44
2022-08-25T10:38:49.980Z,100882.31
2022-08-25T10:41:39.096Z,100877.19
2022-08-25T10:44:34.277Z,100874.53
2022-08-25T10:47:44.004Z,100870.50
2022-08-25T10:50:23.427Z,100872.69
2022-08-25T10:53:00.815Z,100867.03
2022-08-25T10:55:47.113Z,100868.28
2022-08-25T10:58:44.684Z,100863.88
2022-08-25T11:01:44.113Z,100864.94
2022-08-25T11:04:47.219Z,100856.78
2022-08-25T11:07:28.875Z,100847.59
2022-08-25T11:10:02.740Z,100840.97
2022-08-25T11:12:34.900Z,100840.75
2022-08-25T11:15:09.954Z,100839.88
2022-08-25T11:17:53.103Z,100830.84
2022-08-25T11:20:28.694Z,100840.66
2022-08-25T11:23:08.687Z,100825.81
2022-08-25T11:25:43.010Z,100821.03
2022-08-25T11:28:35.809Z,100819.91
2022-08-25T11:31:04.421Z,100818.81
2022-08-25T11:33:33.058Z,100807.41
2022-08-25T11:36:12.801Z,100811.00
2022-08-25T11:38:55.051Z,100806.13
2022-08-25T11:41:43.391Z,100800.78
2022-08-25T11:44:39.197Z,100810.84
2022-08-25T11:47:27.193Z,100808.84
2022-08-25T11:50:07.360Z,100800.78
2022-08-25T11:52:34.978Z,100802.75
2022-08-25T11:55:16.656Z,100802.13
2022-08-25T11:57:46.795Z,100805.22
2022-08-25T12:00:41.819Z,100798.41
2022-08-25T12:03:36.818Z,100803.56
2022-08-25T12:06:21.722Z,100779.91
2022-08-25T12:08:48.573Z,100785.19
2022-08-25T12:11:37.775Z,100786.97
2022-08-25T12:14:13.937Z,100775.22
2022-08-25T12:16:45.711Z,100777.03
2022-08-25T12:19:26.029Z,100763.13
2022-08-25T12:22:18.878Z,100761.56
2022-08-25T12:25:03.257Z,100758.41
2022-08-25T12:27:46.136Z,100757.34
2022-08-25T12:30:45.687Z,100757.94
2022-08-25T12:33:15.185Z,100757.50
2022-08-25T12:35:59.164Z,100744.00
2022-08-25T12:38:51.919Z,100737.34
2022-08-25T12:41:27.233Z,100748.88
2022-08-25T12:44:39.638Z,100738.38
2022-08-25T12:47:32.350Z,100739.78
2022-08-25T12:50:33.367Z,100737.09
2022-08-25T12:53:13.982Z,100741.53
2022-08-25T12:55:47.407Z,100743.59
2022-08-25T12:58:16.208Z,100745.19
2022-08-25T13:01:10.643Z,100734.19
2022-08-25T13:03:58.462Z,100730.13
2022-08-25T13:06:55.969Z,100735.59
2022-08-25T13:09:39.769Z,100730.63
2022-08-25T13:12:17.731Z,100712.97
2022-08-25T13:14:52.086Z,100721.03
2022-08-25T13:17:36.702Z,100713.44
2022-08-25T13:20:15.889Z,100708.88
2022-08-25T13:22:47.425Z,100702.34
2022-08-25T13:25:18.320Z,100707.19
2022-08-25T13:27:53.388Z,100704.09
2022-08-25T13:30:28.997Z,100693.56
2022-08-25T13:32:55.882Z,100691.03
2022-08-25T13:35:32.507Z,100681.72
2022-08-25T13:38:18.219Z,100686.53
2022-08-25T13:40:45.482Z,100680.25
2022-08-25T13:43:14.936Z,100679.16
2022-08-25T13:45:47.057Z,100674.31
2022-08-25T13:48:30.888Z,100659.69
2022-08-25T13:51:23.752Z,100663.78
2022-08-25T13:53:59.094Z,100661.63
2022-08-25T13:56:41.177Z,100655.59
2022-08-25T13:59:25.743Z,100661.69
2022-08-25T14:01:55.098Z,100657.94
2022-08-25T14:04:32.587Z,100657.94
2022-08-25T14:07:14.243Z,100647.22
2022-08-25T14:09:48.227Z,100646.44
2022-08-25T14:12:39.451Z,100647.13
2022-08-25T14:15:16.877Z,100648.97
2022-08-25T14:17:59.479Z,100643.50
2022-08-25T14:20:29.139Z,100643.69
2022-08-25T14:22:59.353Z,100640.19
2022-08-25T14:25:28.018Z,100645.06
2022-08-25T14:28:08.101Z,100635.31
2022-08-25T14:30:55.971Z,100635.25
2022-08-25T14:33:26.816Z,100637.09
2022-08-25T14:35:57.838Z,100635.16
2022-08-25T14:38:24.977Z,100636.28
2022-08-25T14:40:53.386Z,100626.75
2022-08-25T14:43:24.155Z,100624.69
2022-08-25T14:45:58.280Z,100624.47
2022-08-25T14:48:35.463Z,100617.34
2022-08-25T14:51:03.848Z,100618.13
2022-08-25T14:53:30.459Z,100621.75
2022-08-25T14:55:59.023Z,100610.50
2022-08-25T14:58:26.875Z,100623.44
2022-08-25T15:00:54.160Z,100621.25
2022-08-25T15:03:32.865Z,100618.53
2022-08-25T15:06:01.345Z,100612.06
2022-08-25T15:08:46.720Z,100611.31
2022-08-25T15:11:14.579Z,100608.66
2022-08-25T15:13:44.645Z,100602.97
2022-08-25T15:16:20.870Z,100604.84
2022-08-25T15:18:47.631Z,100599.13
2022-08-25T15:21:15.830Z,100597.94
2022-08-25T15:23:44.568Z,100599.91
2022-08-25T15:26:15.447Z,100593.78
2022-08-25T15:28:48.640Z,100589.22
2022-08-25T15:31:17.003Z,100592.06
2022-08-25T15:33:44.201Z,100597.94
2022-08-25T15:36:15.203Z,100594.66
2022-08-25T15:38:46.709Z,100582.84
2022-08-25T15:41:13.278Z,100587.09
2022-08-25T15:43:39.933Z,100583.13
2022-08-25T15:46:07.114Z,100583.50
2022-08-25T15:48:35.253Z,100572.69
2022-08-25T15:51:02.082Z,100577.06
2022-08-25T15:53:31.300Z,100583.03
2022-08-25T15:55:57.946Z,100590.38
2022-08-25T15:58:32.423Z,100577.41
2022-08-25T16:00:59.853Z,100585.22
2022-08-25T16:03:27.147Z,100578.25
2022-08-25T16:05:53.937Z,100573.84
2022-08-25T16:08:20.657Z,100573.25
2022-08-25T16:10:47.515Z,100577.38
2022-08-25T16:13:14.450Z,100575.28
2022-08-25T16:15:46.782Z,100570.16
2022-08-25T16:18:19.600Z,100567.63
2022-08-25T16:20:47.689Z,100578.94
2022-08-25T16:23:16.045Z,100565.13
2022-08-25T16:25:44.946Z,100561.28
2022-08-25T16:28:15.830Z,100570.81
2022-08-25T16:30:52.449Z,100560.84
2022-08-25T16:33:20.395Z,100544.25
2022-08-25T16:35:47.626Z,100555.09
2022-08-25T16:38:16.011Z,100555.56
2022-08-25T16:40:43.204Z,100549.47
2022-08-25T16:43:10.602Z,100547.78
2022-08-25T16:45:37.483Z,100547.00
2022-08-25T16:48:05.681Z,100548.00
2022-08-25T16:50:34.619Z,100550.03
2022-08-25T16:53:20.041Z,100551.31
2022-08-25T16:58:26.172Z,100549.53
2022-08-25T17:00:53.525Z,100553.59
2022-08-25T17:03:21.200Z,100547.72
2022-08-25T17:05:48.764Z,100553.88
2022-08-25T17:08:31.220Z,100546.16
2022-08-25T17:11:10.777Z,100554.88
2022-08-25T17:13:39.868Z,100553.34
2022-08-25T17:16:12.320Z,100545.06
2022-08-25T17:18:41.961Z,100538.50
2022-08-25T17:21:19.539Z,100546.34
2022-08-25T17:23:51.232Z,100539.44
2022-08-25T17:26:18.395Z,100545.88
2022-08-25T17:28:46.085Z,100536.72
2022-08-25T17:31:14.325Z,100530.06
2022-08-25T17:33:41.805Z,100540.44
2022-08-25T17:36:09.332Z,100531.03
2022-08-25T17:38:37.128Z,100536.06
2022-08-25T17:41:09.002Z,100536.47
2022-08-25T17:43:38.565Z,100535.97
2022-08-25T17:46:05.971Z,100544.28
2022-08-25T17:48:33.184Z,100542.81
2022-08-25T17:51:01.103Z,100540.38
2022-08-25T17:53:27.876Z,100543.47
2022-08-25T17:56:00.424Z,100542.91
2022-08-25T17:58:28.409Z,100543.00
2022-08-25T18:00:56.735Z,100543.84
2022-08-25T18:03:25.547Z,100547.56
2022-08-25T18:05:53.039Z,100550.28
2022-08-25T18:08:19.966Z,100548.47
2022-08-25T18:10:58.655Z,100548.53
2022-08-25T18:13:26.757Z,100551.16
2022-08-25T18:15:55.072Z,100555.69
2022-08-25T18:18:21.590Z,100556.53
2022-08-25T18:20:51.118Z,100546.41
2022-08-25T18:23:19.770Z,100550.81
2022-08-25T18:25:48.749Z,100557.13
2022-08-25T18:28:15.668Z,100559.66
2022-08-25T18:30:42.779Z,100551.25
2022-08-25T18:33:10.425Z,100560.94
2022-08-25T18:35:38.032Z,100562.38
2022-08-25T18:38:24.860Z,100562.97
2022-08-25T18:41:10.535Z,100570.91
2022-08-25T18:43:39.022Z,100570.38
2022-08-25T18:46:06.555Z,100572.69
2022-08-25T18:48:34.978Z,100573.16
2022-08-25T18:51:02.444Z,100573.66
2022-08-25T18:53:37.480Z,100571.41
2022-08-25T18:56:16.589Z,100573.63
2022-08-25T18:58:43.205Z,100570.53
2022-08-25T19:01:13.596Z,100574.53
2022-08-25T19:03:40.240Z,100575.75
2022-08-25T19:06:07.060Z,100580.63
2022-08-25T19:08:33.622Z,100582.81
2022-08-25T19:11:00.169Z,100588.63
2022-08-25T19:13:26.771Z,100586.28
2022-08-25T19:15:53.973Z,100582.06
2022-08-25T19:18:25.975Z,100586.03
2022-08-25T19:20:52.748Z,100580.97
2022-08-25T19:23:19.673Z,100586.59
2022-08-25T19:25:46.760Z,100582.38
2022-08-25T19:28:13.764Z,100595.25
2022-08-25T19:30:49.777Z,100590.13
2022-08-25T19:33:42.460Z,100587.72
2022-08-25T19:36:08.686Z,100587.09
2022-08-25T19:38:37.245Z,100591.78
2022-08-25T19:41:13.909Z,100589.34
2022-08-25T19:43:50.579Z,100590.44
2022-08-25T19:46:23.230Z,100584.38
2022-08-25T19:48:49.884Z,100587.34
2022-08-25T19:51:19.363Z,100584.94
2022-08-25T19:53:54.293Z,100584.25
2022-08-25T19:56:22.468Z,100584.47
2022-08-25T19:58:49.044Z,100581.03
2022-08-25T20:01:18.181Z,100585.78
2022-08-25T20:03:45.553Z,100584.16
2022-08-25T20:06:15.856Z,100580.72
2022-08-25T20:08:43.737Z,100581.78
2022-08-25T20:11:11.005Z,100585.59
2022-08-25T20:13:37.768Z,100584.94
2022-08-25T20:16:05.482Z,100573.44
2022-08-25T20:18:32.452Z,100581.69
2022-08-25T20:20:59.040Z,100578.31
2022-08-25T20:23:44.121Z,100570.41
2022-08-25T20:26:10.663Z,100582.28
2022-08-25T20:28:37.290Z,100579.78
2022-08-25T20:31:04.060Z,100577.28
2022-08-25T20:33:30.875Z,100579.25
2022-08-25T20:35:58.344Z,100588.41
2022-08-25T20:38:26.935Z,100587.66
2022-08-25T20:40:53.453Z,100586.94
2022-08-25T20:43:20.854Z,100585.28
2022-08-25T20:45:47.827Z,100592.66
2022-08-25T20:48:14.419Z,100588.31
2022-08-25T20:50:40.965Z,100592.94
2022-08-25T20:53:10.303Z,100588.56
2022-08-25T20:55:43.850Z,100590.50
2022-08-25T20:58:12.637Z,100587.91
2022-08-25T21:00:45.691Z,100584.53
2022-08-25T21:03:12.438Z,100582.81
2022-08-25T21:05:41.227Z,100583.84
2022-08-25T21:08:08.299Z,100587.66
2022-08-25T21:10:35.205Z,100589.63
2022-08-25T21:13:02.053Z,100584.31
2022-08-25T21:15:28.748Z,100577.22
2022-08-25T21:17:55.659Z,100586.41
2022-08-25T21:20:23.908Z,100582.00
2022-08-25T21:22:51.442Z,100582.13
2022-08-25T21:25:21.217Z,100585.84
2022-08-25T21:27:47.942Z,100583.25
2022-08-25T21:30:16.183Z,100572.56
2022-08-25T21:32:53.139Z,100578.13
2022-08-25T21:35:22.397Z,100571.97
2022-08-25T21:37:53.459Z,100574.81
2022-08-25T21:40:21.764Z,100571.34
2022-08-25T21:42:48.911Z,100575.09
2022-08-25T21:45:15.652Z,100572.50
2022-08-25T21:47:42.608Z,100573.41
2022-08-25T21:50:13.825Z,100569.97
2022-08-25T21:52:41.265Z,100573.69
2022-08-25T21:55:15.781Z,100562.97
2022-08-25T21:57:43.794Z,100576.59
2022-08-25T22:00:13.038Z,100572.22
2022-08-25T22:02:39.594Z,100570.56
2022-08-25T22:05:11.502Z,100570.72
2022-08-25T22:07:42.085Z,100567.22
2022-08-25T22:10:16.801Z,100560.13
2022-08-25T22:12:45.784Z,100569.22
2022-08-25T22:15:13.572Z,100566.63
2022-08-25T22:17:40.499Z,100563.13
2022-08-25T22:20:08.391Z,100559.59
2022-08-25T22:22:35.624Z,100558.75
2022-08-25T22:25:03.178Z,100554.38
2022-08-25T22:27:30.319Z,100557.22
2022-08-25T22:29:56.977Z,100546.56
2022-08-25T22:32:23.606Z,100551.13
2022-08-25T22:34:50.448Z,100555.69
2022-08-25T22:37:17.938Z,100560.28
2022-08-25T22:39:45.727Z,100554.06
2022-08-25T22:42:12.545Z,100560.47
2022-08-25T22:44:40.656Z,100560.47
2022-08-25T22:47:07.499Z,100562.41
2022-08-25T22:49:35.475Z,100554.38
2022-08-25T22:52:02.195Z,100552.63
2022-08-25T22:54:29.898Z,100552.72
2022-08-25T22:56:56.531Z,100555.50
2022-08-25T22:59:23.360Z,100558.31
2022-08-25T23:01:52.590Z,100557.50
2022-08-25T23:04:21.689Z,100557.63
2022-08-25T23:06:49.296Z,100554.09
2022-08-25T23:09:16.029Z,100558.66
2022-08-25T23:11:43.031Z,100561.44
2022-08-25T23:14:11.054Z,100553.41
2022-08-25T23:16:42.340Z,100557.13
2022-08-25T23:19:13.976Z,100552.63
2022-08-25T23:21:59.577Z,100555.41
2022-08-25T23:24:29.994Z,100545.59
2022-08-25T23:27:03.903Z,100547.50
2022-08-25T23:29:31.767Z,100549.34
2022-08-25T23:31:58.664Z,100539.56
2022-08-25T23:34:26.669Z,100534.22
2022-08-25T23:36:55.963Z,100537.88
2022-08-25T23:39:22.544Z,100536.19
2022-08-25T23:41:49.809Z,100538.00
2022-08-25T23:44:17.217Z,100525.44
2022-08-25T23:46:44.874Z,100519.25
2022-08-25T23:49:11.809Z,100527.38
2022-08-25T23:51:40.035Z,100529.22
2022-08-25T23:54:10.826Z,100522.03
2022-08-25T23:56:44.914Z,100521.19
2022-08-25T23:59:24.322Z,100518.50
